createdAt,value
2022-11-15T00:00:55.552Z,98377.16
2022-11-15T00:03:24.755Z,98376.38
2022-11-15T00:05:51.533Z,98389.53
2022-11-15T00:08:18.206Z,98370.09
2022-11-15T00:10:55.152Z,98366.53
2022-11-15T00:13:21.609Z,98366.56
2022-11-15T00:15:48.106Z,98373.56
2022-11-15T00:18:15.653Z,98373.59
2022-11-15T00:20:42.304Z,98377.91
2022-11-15T00:23:08.850Z,98365.59
2022-11-15T00:25:35.750Z,98372.59
2022-11-15T00:28:02.782Z,98365.56
2022-11-15T00:30:32.641Z,98370.88
2022-11-15T00:33:06.269Z,98358.50
2022-11-15T00:35:36.473Z,98370.84
2022-11-15T00:38:03.728Z,98377.91
2022-11-15T00:40:33.619Z,98377.94
2022-11-15T00:43:00.250Z,98385.00
2022-11-15T00:45:29.349Z,98370.03
2022-11-15T00:47:55.839Z,98370.03
2022-11-15T00:50:22.327Z,98356.78
2022-11-15T00:52:49.093Z,98342.66
2022-11-15T00:55:17.262Z,98343.50
2022-11-15T00:57:43.867Z,98348.75
2022-11-15T01:00:14.349Z,98345.19
2022-11-15T01:02:40.858Z,98341.72
2022-11-15T01:05:08.153Z,98347.00
2022-11-15T01:07:35.033Z,98333.75
2022-11-15T01:10:01.721Z,98343.44
2022-11-15T01:12:28.417Z,98349.56
2022-11-15T01:14:54.978Z,98344.31
2022-11-15T01:17:21.482Z,98350.47
2022-11-15T01:19:50.732Z,98343.41
2022-11-15T01:22:17.709Z,98355.78
2022-11-15T01:24:47.257Z,98328.34
2022-11-15T01:27:13.708Z,98341.56
2022-11-15T01:29:40.169Z,98333.63
2022-11-15T01:32:06.808Z,98333.56
2022-11-15T01:34:33.320Z,98332.69
2022-11-15T01:36:59.869Z,98328.28
2022-11-15T01:39:27.331Z,98315.91
2022-11-15T01:41:54.236Z,98314.97
2022-11-15T01:44:38.705Z,98316.84
2022-11-15T01:47:13.188Z,98317.81
2022-11-15T01:49:43.228Z,98323.06
2022-11-15T01:52:21.362Z,98322.97
2022-11-15T01:54:51.158Z,98334.31
2022-11-15T01:57:17.719Z,98322.88
2022-11-15T01:59:46.498Z,98330.84
2022-11-15T02:02:13.307Z,98328.22
2022-11-15T02:04:43.737Z,98329.03
2022-11-15T02:07:13.310Z,98333.41
2022-11-15T02:09:42.880Z,98325.47
2022-11-15T02:12:10.956Z,98329.84
2022-11-15T02:14:40.511Z,98332.56
2022-11-15T02:17:09.871Z,98322.00
2022-11-15T02:19:50.013Z,98312.28
2022-11-15T02:22:47.028Z,98314.94
2022-11-15T02:25:13.427Z,98312.31
2022-11-15T02:27:45.840Z,98302.59
2022-11-15T02:30:44.502Z,98306.94
2022-11-15T02:33:20.011Z,98312.25
2022-11-15T02:35:59.560Z,98306.13
2022-11-15T02:38:32.440Z,98311.31
2022-11-15T02:41:14.132Z,98297.22
2022-11-15T02:43:58.095Z,98291.88
2022-11-15T02:47:05.539Z,98296.31
2022-11-15T02:49:34.937Z,98301.59
2022-11-15T02:52:01.578Z,98302.53
2022-11-15T02:54:34.355Z,98298.22
2022-11-15T02:57:11.436Z,98298.19
2022-11-15T02:59:55.931Z,98295.56
2022-11-15T03:02:34.622Z,98298.19
2022-11-15T03:05:10.469Z,98294.56
2022-11-15T03:07:58.088Z,98301.59
2022-11-15T03:10:43.569Z,98290.13
2022-11-15T03:13:09.965Z,98289.31
2022-11-15T03:15:45.458Z,98289.22
2022-11-15T03:18:16.298Z,98288.28
2022-11-15T03:20:43.907Z,98281.22
2022-11-15T03:23:11.969Z,98280.38
2022-11-15T03:25:43.971Z,98277.72
2022-11-15T03:28:12.388Z,98279.53
2022-11-15T03:30:43.990Z,98279.56
2022-11-15T03:33:12.297Z,98279.53
2022-11-15T03:35:43.514Z,98286.66
2022-11-15T03:38:21.156Z,98284.03
2022-11-15T03:40:59.359Z,98281.31
2022-11-15T03:43:44.348Z,98290.13
2022-11-15T03:46:15.620Z,98290.16
2022-11-15T03:48:47.163Z,98278.81
2022-11-15T03:51:14.697Z,98293.81
2022-11-15T03:53:42.235Z,98296.41
2022-11-15T03:56:08.745Z,98304.38
2022-11-15T03:58:35.300Z,98304.41
2022-11-15T04:01:01.816Z,98302.63
2022-11-15T04:03:28.452Z,98303.59
2022-11-15T04:05:55.024Z,98304.50
2022-11-15T04:08:21.658Z,98305.38
2022-11-15T04:10:50.088Z,98311.56
2022-11-15T04:13:16.574Z,98309.81
2022-11-15T04:15:43.038Z,98305.38
2022-11-15T04:18:10.806Z,98301.88
2022-11-15T04:20:55.567Z,98303.59
2022-11-15T04:23:42.917Z,98317.63
2022-11-15T04:26:13.497Z,98307.97
2022-11-15T04:28:58.597Z,98307.09
2022-11-15T04:31:25.115Z,98307.91
2022-11-15T04:33:51.646Z,98313.19
2022-11-15T04:36:36.772Z,98305.25
2022-11-15T04:39:03.815Z,98303.41
2022-11-15T04:41:30.377Z,98299.91
2022-11-15T04:43:57.127Z,98289.28
2022-11-15T04:46:24.968Z,98285.72
2022-11-15T04:48:58.029Z,98275.97
2022-11-15T04:51:25.290Z,98275.09
2022-11-15T04:53:51.773Z,98271.59
2022-11-15T04:56:18.237Z,98263.66
2022-11-15T04:58:44.681Z,98255.69
2022-11-15T05:01:15.469Z,98268.97
2022-11-15T05:04:01.531Z,98257.47
2022-11-15T05:06:28.133Z,98262.75
2022-11-15T05:08:54.609Z,98253.06
2022-11-15T05:11:21.688Z,98266.25
2022-11-15T05:13:51.558Z,98268.03
2022-11-15T05:16:18.082Z,98275.03
2022-11-15T05:18:44.632Z,98275.97
2022-11-15T05:21:14.138Z,98282.09
2022-11-15T05:23:41.935Z,98281.28
2022-11-15T05:26:09.905Z,98287.47
2022-11-15T05:28:40.445Z,98295.47
2022-11-15T05:31:11.747Z,98297.34
2022-11-15T05:33:42.235Z,98309.88
2022-11-15T05:36:32.585Z,98307.31
2022-11-15T05:38:59.150Z,98310.97
2022-11-15T05:41:33.339Z,98319.88
2022-11-15T05:44:02.162Z,98310.22
2022-11-15T05:46:30.260Z,98314.69
2022-11-15T05:48:57.772Z,98314.72
2022-11-15T05:51:24.371Z,98320.13
2022-11-15T05:53:52.850Z,98313.97
2022-11-15T05:56:22.332Z,98316.59
2022-11-15T05:58:48.882Z,98310.31
2022-11-15T06:01:15.496Z,98311.03
2022-11-15T06:03:42.033Z,98312.78
2022-11-15T06:06:12.335Z,98317.25
2022-11-15T06:08:42.639Z,98304.09
2022-11-15T06:11:09.110Z,98317.34
2022-11-15T06:13:35.822Z,98314.59
2022-11-15T06:16:02.570Z,98315.38
2022-11-15T06:18:29.196Z,98308.28
2022-11-15T06:20:59.807Z,98318.91
2022-11-15T06:23:26.421Z,98326.00
2022-11-15T06:25:52.890Z,98326.06
2022-11-15T06:28:19.426Z,98326.19
2022-11-15T06:30:49.181Z,98330.69
2022-11-15T06:33:19.482Z,98331.59
2022-11-15T06:35:48.541Z,98336.00
2022-11-15T06:38:15.026Z,98338.66
2022-11-15T06:40:41.600Z,98346.53
2022-11-15T06:43:08.642Z,98336.75
2022-11-15T06:45:35.298Z,98334.84
2022-11-15T06:48:01.799Z,98340.91
2022-11-15T06:50:28.316Z,98340.81
2022-11-15T06:52:55.556Z,98338.97
2022-11-15T06:55:22.290Z,98331.00
2022-11-15T06:57:52.907Z,98346.78
2022-11-15T07:00:20.994Z,98346.75
2022-11-15T07:02:48.131Z,98348.50
2022-11-15T07:05:15.594Z,98348.38
2022-11-15T07:07:42.169Z,98355.41
2022-11-15T07:10:10.189Z,98342.13
2022-11-15T07:12:36.969Z,98344.72
2022-11-15T07:15:03.683Z,98342.06
2022-11-15T07:17:30.182Z,98344.69
2022-11-15T07:19:56.636Z,98345.44
2022-11-15T07:22:23.108Z,98349.84
2022-11-15T07:24:49.615Z,98356.00
2022-11-15T07:27:16.491Z,98354.16
2022-11-15T07:29:43.274Z,98356.75
2022-11-15T07:32:10.525Z,98353.19
2022-11-15T07:34:36.983Z,98350.44
2022-11-15T07:37:06.298Z,98348.69
2022-11-15T07:39:32.752Z,98356.63
2022-11-15T07:42:18.671Z,98355.66
2022-11-15T07:44:45.138Z,98346.84
2022-11-15T07:47:11.584Z,98348.66
2022-11-15T07:49:38.078Z,98345.16
2022-11-15T07:52:04.765Z,98353.97
2022-11-15T07:54:31.277Z,98344.22
2022-11-15T07:57:00.163Z,98342.47
2022-11-15T07:59:29.063Z,98341.47
2022-11-15T08:01:55.592Z,98326.34
2022-11-15T08:04:24.590Z,98323.63
2022-11-15T08:06:51.087Z,98336.81
2022-11-15T08:09:17.612Z,98331.34
2022-11-15T08:11:44.121Z,98332.91
2022-11-15T08:14:10.619Z,98330.09
2022-11-15T08:16:37.084Z,98333.53
2022-11-15T08:19:03.738Z,98313.91
2022-11-15T08:21:30.216Z,98320.84
2022-11-15T08:23:59.778Z,98317.19
2022-11-15T08:26:30.053Z,98322.34
2022-11-15T08:28:56.652Z,98314.16
2022-11-15T08:31:23.157Z,98316.75
2022-11-15T08:33:49.657Z,98318.50
2022-11-15T08:36:17.857Z,98310.59
2022-11-15T08:38:44.430Z,98307.97
2022-11-15T08:41:18.053Z,98311.59
2022-11-15T08:43:44.529Z,98308.13
2022-11-15T08:46:14.712Z,98310.84
2022-11-15T08:48:41.257Z,98311.66
2022-11-15T08:51:07.875Z,98313.31
2022-11-15T08:53:35.267Z,98309.72
2022-11-15T08:56:02.621Z,98313.28
2022-11-15T08:58:29.913Z,98306.19
2022-11-15T09:00:56.901Z,98311.59
2022-11-15T09:03:23.442Z,98307.16
2022-11-15T09:05:49.985Z,98302.75
2022-11-15T09:08:45.608Z,98295.59
2022-11-15T09:11:10.804Z,98290.19
2022-11-15T09:13:38.107Z,98296.22
2022-11-15T09:16:05.192Z,98294.19
2022-11-15T09:18:32.569Z,98289.31
2022-11-15T09:21:00.314Z,98295.97
2022-11-15T09:23:27.655Z,98300.22
2022-11-15T09:26:00.654Z,98308.22
2022-11-15T09:28:27.188Z,98309.91
2022-11-15T09:31:00.526Z,98304.34
2022-11-15T09:33:27.827Z,98299.69
2022-11-15T09:35:54.750Z,98308.44
2022-11-15T09:38:21.591Z,98306.00
2022-11-15T09:40:58.580Z,98311.88
2022-11-15T09:43:29.330Z,98309.63
2022-11-15T09:46:13.493Z,98309.63
2022-11-15T09:48:49.300Z,98299.53
2022-11-15T09:51:26.173Z,98296.75
2022-11-15T09:57:16.097Z,98302.88
2022-11-15T10:00:44.794Z,98294.81
2022-11-15T10:03:03.447Z,98291.78
2022-11-15T10:05:31.370Z,98284.28
2022-11-15T10:07:57.825Z,98270.69
2022-11-15T10:10:44.754Z,98275.00
2022-11-15T10:13:30.272Z,98265.13
2022-11-15T10:16:20.814Z,98256.03
2022-11-15T10:19:20.888Z,98250.59
2022-11-15T10:22:24.978Z,98250.53
2022-11-15T15:23:37.408Z,98060.00
2022-11-15T15:26:04.165Z,98050.31
2022-11-15T15:28:34.542Z,98047.78
2022-11-15T15:31:02.085Z,98053.16
2022-11-15T15:33:28.532Z,98041.75
2022-11-15T15:35:55.033Z,98035.63
2022-11-15T15:38:24.878Z,98037.44
2022-11-15T15:40:51.893Z,98030.41
2022-11-15T15:43:18.522Z,98032.19
2022-11-15T15:45:45.962Z,98025.16
2022-11-15T15:48:14.950Z,98023.38
2022-11-15T15:50:43.788Z,98018.06
2022-11-15T15:53:12.066Z,98013.59
2022-11-15T15:55:38.839Z,98006.47
2022-11-15T15:58:06.361Z,98005.44
2022-11-15T16:00:36.053Z,98004.56
2022-11-15T16:03:02.703Z,98008.13
2022-11-15T16:05:29.257Z,98006.34
2022-11-15T16:07:55.790Z,98003.69
2022-11-15T16:10:30.760Z,98001.94
2022-11-15T16:12:58.589Z,97996.81
2022-11-15T16:15:27.419Z,97998.66
2022-11-15T16:17:58.507Z,97999.78
2022-11-15T16:20:32.275Z,98001.50
2022-11-15T16:23:04.392Z,97993.59
2022-11-15T16:25:47.991Z,97997.38
2022-11-15T16:28:28.697Z,97993.16
2022-11-15T16:31:05.583Z,97988.94
2022-11-15T16:33:32.839Z,97987.28
2022-11-15T16:35:59.659Z,97978.44
2022-11-15T16:38:26.200Z,97975.03
2022-11-15T16:40:52.715Z,97973.28
2022-11-15T16:43:19.410Z,97975.03
2022-11-15T16:45:45.944Z,97976.03
2022-11-15T16:48:27.135Z,97976.16
2022-11-15T16:50:58.686Z,97964.75
2022-11-15T16:53:26.422Z,97966.56
2022-11-15T16:55:53.347Z,97959.56
2022-11-15T16:58:19.788Z,97965.00
2022-11-15T17:00:50.356Z,97964.16
2022-11-15T17:03:16.871Z,97965.19
2022-11-15T17:05:43.359Z,97967.91
2022-11-15T17:08:09.818Z,97960.81
2022-11-15T17:10:44.185Z,97960.81
2022-11-15T17:13:13.373Z,97970.69
2022-11-15T17:15:40.150Z,97968.00
2022-11-15T17:18:06.948Z,97967.09
2022-11-15T17:20:33.666Z,97967.94
2022-11-15T17:23:00.196Z,97964.38
2022-11-15T17:25:26.734Z,97963.50
2022-11-15T17:27:53.339Z,97955.66
2022-11-15T17:30:20.362Z,97954.78
2022-11-15T17:32:49.764Z,97962.75
2022-11-15T17:35:16.456Z,97955.72
2022-11-15T17:37:43.410Z,97953.13
2022-11-15T17:40:10.468Z,97959.31
2022-11-15T17:42:36.968Z,97960.19
2022-11-15T17:45:09.325Z,97952.44
2022-11-15T17:47:37.140Z,97950.06
2022-11-15T17:50:04.206Z,97953.72
2022-11-15T17:52:30.764Z,97951.13
2022-11-15T17:54:57.222Z,97948.53
2022-11-15T17:57:24.143Z,97946.75
2022-11-15T17:59:50.651Z,97947.59
2022-11-15T18:02:20.597Z,97943.16
2022-11-15T18:04:47.086Z,97951.94
2022-11-15T18:07:14.037Z,97950.25
2022-11-15T18:09:43.715Z,97937.16
2022-11-15T18:12:11.260Z,97938.06
2022-11-15T18:14:37.715Z,97942.50
2022-11-15T18:17:04.242Z,97936.25
2022-11-15T18:19:30.705Z,97937.88
2022-11-15T18:21:57.366Z,97938.69
2022-11-15T18:24:25.659Z,97934.28
2022-11-15T18:26:52.175Z,97930.81
2022-11-15T18:29:19.798Z,97928.16
2022-11-15T18:31:50.033Z,97933.50
2022-11-15T18:34:17.519Z,97920.25
2022-11-15T18:36:44.066Z,97927.34
2022-11-15T18:39:16.300Z,97928.22
2022-11-15T18:41:44.077Z,97929.13
2022-11-15T18:44:10.681Z,97925.50
2022-11-15T18:46:38.786Z,97917.53
2022-11-15T18:49:07.520Z,97925.50
2022-11-15T18:51:35.566Z,97913.31
2022-11-15T18:54:02.739Z,97914.94
2022-11-15T18:56:31.624Z,97914.94
2022-11-15T18:59:00.396Z,97899.03
2022-11-15T19:01:29.602Z,97900.81
2022-11-15T19:03:58.631Z,97893.84
2022-11-15T19:06:27.472Z,97900.88
2022-11-15T19:08:57.333Z,97893.00
2022-11-15T19:11:30.953Z,97888.50
2022-11-15T19:14:00.037Z,97883.22
2022-11-15T19:16:27.983Z,97881.56
2022-11-15T19:18:59.402Z,97880.75
2022-11-15T19:21:27.756Z,97884.25
2022-11-15T19:23:54.570Z,97879.84
2022-11-15T19:26:22.773Z,97876.28
2022-11-15T19:28:58.963Z,97881.59
2022-11-15T19:31:27.578Z,97871.94
2022-11-15T19:33:57.696Z,97867.53
2022-11-15T19:36:29.424Z,97872.94
2022-11-15T19:38:56.324Z,97867.59
2022-11-15T19:41:24.710Z,97866.63
2022-11-15T19:43:51.908Z,97852.53
2022-11-15T19:46:23.447Z,97857.78
2022-11-15T19:48:51.026Z,97843.75
2022-11-15T19:51:24.523Z,97850.88
2022-11-15T19:53:56.123Z,97844.72
2022-11-15T19:56:23.585Z,97843.84
2022-11-15T19:58:52.513Z,97846.41
2022-11-15T20:01:20.219Z,97842.88
2022-11-15T20:03:48.093Z,97842.03
2022-11-15T20:06:20.361Z,97837.66
2022-11-15T20:08:48.000Z,97843.88
2022-11-15T20:11:15.692Z,97841.34
2022-11-15T20:13:43.201Z,97844.00
2022-11-15T20:16:14.720Z,97846.66
2022-11-15T20:18:41.255Z,97837.06
2022-11-15T20:21:08.779Z,97838.81
2022-11-15T20:23:35.358Z,97828.28
2022-11-15T20:26:01.834Z,97831.78
2022-11-15T20:28:28.840Z,97824.66
2022-11-15T20:31:00.256Z,97821.13
2022-11-15T20:33:27.951Z,97815.91
2022-11-15T20:35:54.617Z,97816.78
2022-11-15T20:38:21.660Z,97805.41
2022-11-15T20:40:49.744Z,97805.41
2022-11-15T20:43:18.884Z,97812.44
2022-11-15T20:45:47.264Z,97805.56
2022-11-15T20:48:14.952Z,97811.78
2022-11-15T20:50:43.654Z,97818.78
2022-11-15T20:53:12.697Z,97818.78
2022-11-15T20:55:44.254Z,97818.75
2022-11-15T20:58:11.540Z,97821.38
2022-11-15T21:00:38.295Z,97815.13
2022-11-15T21:03:08.642Z,97815.13
2022-11-15T21:05:38.464Z,97812.59
2022-11-15T21:08:05.234Z,97805.69
2022-11-15T21:10:50.675Z,97809.16
2022-11-15T21:13:17.252Z,97807.47
2022-11-15T21:15:43.838Z,97803.00
2022-11-15T21:18:10.365Z,97811.69
2022-11-15T21:20:36.836Z,97815.94
2022-11-15T21:23:03.452Z,97807.94
2022-11-15T21:25:29.927Z,97803.53
2022-11-15T21:27:56.591Z,97807.06
2022-11-15T21:30:23.125Z,97812.41
2022-11-15T21:32:49.732Z,97800.94
2022-11-15T21:35:16.373Z,97795.66
2022-11-15T21:37:42.913Z,97794.75
2022-11-15T21:40:10.175Z,97785.97
2022-11-15T21:42:36.655Z,97793.16
2022-11-15T21:45:03.571Z,97779.97
2022-11-15T21:47:30.021Z,97787.09
2022-11-15T21:49:56.530Z,97781.00
2022-11-15T21:52:22.999Z,97782.84
2022-11-15T21:54:49.490Z,97781.06
2022-11-15T21:57:15.928Z,97786.44
2022-11-15T22:00:02.367Z,97784.69
2022-11-15T22:02:28.804Z,97772.28
2022-11-15T22:04:55.302Z,97769.53
2022-11-15T22:07:23.191Z,97769.59
2022-11-15T22:09:49.891Z,97766.03
2022-11-15T22:12:16.338Z,97764.97
2022-11-15T22:14:42.835Z,97770.19
2022-11-15T22:17:09.330Z,97764.88
2022-11-15T22:19:40.403Z,97759.59
2022-11-15T22:22:14.055Z,97755.09
2022-11-15T22:24:40.528Z,97745.19
2022-11-15T22:27:07.113Z,97741.53
2022-11-15T22:29:33.598Z,97736.78
2022-11-15T22:32:00.132Z,97729.59
2022-11-15T22:34:26.666Z,97729.69
2022-11-15T22:37:19.102Z,97731.53
2022-11-15T22:39:41.676Z,97724.56
2022-11-15T22:42:08.204Z,97734.38
2022-11-15T22:44:34.694Z,97726.53
2022-11-15T22:47:01.277Z,97726.50
2022-11-15T22:49:27.781Z,97725.72
2022-11-15T22:51:54.259Z,97724.03
2022-11-15T22:54:20.791Z,97715.38
2022-11-15T22:56:47.269Z,97711.81
2022-11-15T22:59:13.807Z,97711.81
2022-11-15T23:01:40.316Z,97709.22
2022-11-15T23:04:06.866Z,97705.75
2022-11-15T23:06:33.372Z,97711.00
2022-11-15T23:08:59.891Z,97699.75
2022-11-15T23:11:44.773Z,97696.28
2022-11-15T23:14:11.328Z,97695.34
2022-11-15T23:16:37.890Z,97692.69
2022-11-15T23:19:07.646Z,97696.31
2022-11-15T23:21:52.789Z,97694.56
2022-11-15T23:24:20.245Z,97697.22
2022-11-15T23:26:49.953Z,97699.78
2022-11-15T23:29:19.612Z,97693.78
2022-11-15T23:32:04.835Z,97691.13
2022-11-15T23:34:32.419Z,97687.56
2022-11-15T23:36:59.727Z,97685.00
2022-11-15T23:39:26.645Z,97683.22
2022-11-15T23:41:56.312Z,97686.78
2022-11-15T23:44:23.337Z,97679.72
2022-11-15T23:46:49.889Z,97667.34
2022-11-15T23:49:16.729Z,97665.75
2022-11-15T23:51:43.352Z,97659.66
2022-11-15T23:54:10.633Z,97656.19
2022-11-15T23:56:37.797Z,97657.94
2022-11-15T23:59:05.348Z,97650.03
